Time,TemperatureF,DewpointF,PressureIn,WindDirection,WindDirectionDegrees,WindSpeedMPH,WindSpeedGustMPH,Humidity,HourlyPrecipIn,Conditions,Clouds,dailyrainin,SoftwareType,DateUTC
2013-04-02 00:00:00,29.0,21.7,30.03,SE,139,0.0,0.0,74,0.00,,,0.00,Wunderground v.1.15,2013-04-02 04:00:00,
2013-04-02 00:05:00,28.0,21.1,30.03,East,90,0.0,-999.0,75,0.00,,,0.00,Wunderground v.1.15,2013-04-02 04:05:00,
2013-04-02 00:10:00,28.7,21.5,30.03,East,91,0.0,0.0,74,0.00,,,0.00,Wunderground v.1.15,2013-04-02 04:10:00,
2013-04-02 00:15:00,28.5,21.6,30.03,East,91,0.0,0.0,75,0.00,,,0.00,Wunderground v.1.15,2013-04-02 04:15:00,
2013-04-02 00:20:00,28.3,21.1,30.03,East,86,0.0,0.0,74,0.00,,,0.00,Wunderground v.1.15,2013-04-02 04:20:00,
2013-04-02 00:25:00,28.1,21.2,30.03,East,86,0.0,1.0,75,0.00,,,0.00,Wunderground v.1.15,2013-04-02 04:25:00,
2013-04-02 00:30:00,28.0,21.1,30.03,East,86,0.0,0.0,75,0.00,,,0.00,Wunderground v.1.15,2013-04-02 04:30:00,
2013-04-02 00:35:00,28.0,21.1,30.03,East,90,0.0,-999.0,75,0.00,,,0.00,Wunderground v.1.15,2013-04-02 04:35:00,
2013-04-02 00:40:00,27.7,21.4,30.03,East,86,0.0,0.0,77,0.00,,,0.00,Wunderground v.1.15,2013-04-02 04:40:00,
2013-04-02 00:45:00,27.6,21.3,30.03,East,86,0.0,0.0,77,0.00,,,0.00,Wunderground v.1.15,2013-04-02 04:45:00,
2013-04-02 00:50:00,27.2,21.2,30.04,SE,135,0.0,-999.0,78,0.00,,,0.00,Wunderground v.1.15,2013-04-02 04:50:00,
2013-04-02 00:55:00,27.2,21.2,30.04,SE,135,0.0,-999.0,78,0.00,,,0.00,Wunderground v.1.15,2013-04-02 04:55:00,
2013-04-02 01:00:00,27.2,21.2,30.04,SE,135,0.0,-999.0,78,0.00,,,0.00,Wunderground v.1.15,2013-04-02 05:00:00,
2013-04-02 01:05:00,27.2,21.2,30.04,SE,135,0.0,-999.0,78,0.00,,,0.00,Wunderground v.1.15,2013-04-02 05:05:00,
2013-04-02 01:10:00,27.2,21.2,30.04,SE,135,0.0,-999.0,78,0.00,,,0.00,Wunderground v.1.15,2013-04-02 05:10:00,
2013-04-02 01:15:00,26.7,21.1,30.04,NE,45,0.0,-999.0,79,0.00,,,0.00,Wunderground v.1.15,2013-04-02 05:15:00,
2013-04-02 01:20:00,26.7,21.1,30.04,NE,45,0.0,-999.0,79,0.00,,,0.00,Wunderground v.1.15,2013-04-02 05:20:00,
2013-04-02 01:25:00,26.7,21.1,30.04,NE,45,0.0,-999.0,79,0.00,,,0.00,Wunderground v.1.15,2013-04-02 05:25:00,
2013-04-02 01:30:00,26.7,21.1,30.04,NE,45,0.0,-999.0,79,0.00,,,0.00,Wunderground v.1.15,2013-04-02 05:30:00,
2013-04-02 01:35:00,26.7,21.1,30.04,NE,45,0.0,-999.0,79,0.00,,,0.00,Wunderground v.1.15,2013-04-02 05:35:00,
2013-04-02 01:40:00,26.7,21.1,30.04,NE,45,0.0,-999.0,79,0.00,,,0.00,Wunderground v.1.15,2013-04-02 05:40:00,
2013-04-02 01:45:00,26.3,20.7,30.04,NE,45,0.0,-999.0,79,0.00,,,0.00,Wunderground v.1.15,2013-04-02 05:45:00,
2013-04-02 01:50:00,26.3,20.7,30.04,NE,45,0.0,-999.0,79,0.00,,,0.00,Wunderground v.1.15,2013-04-02 05:50:00,
2013-04-02 01:55:00,26.3,20.7,30.04,NE,45,0.0,-999.0,79,0.00,,,0.00,Wunderground v.1.15,2013-04-02 05:55:00,
2013-04-02 08:00:00,28.0,16.3,30.14,NNE,19,0.0,3.0,61,0.00,,,0.00,Wunderground v.1.15,2013-04-02 12:00:00,
2013-04-02 08:05:00,29.2,17.4,30.14,ENE,63,1.0,3.0,61,0.00,,,0.00,Wunderground v.1.15,2013-04-02 12:05:00,
2013-04-02 08:10:00,29.8,16.0,30.15,NE,49,1.0,1.0,56,0.00,,,0.00,Wunderground v.1.15,2013-04-02 12:10:00,
2013-04-02 08:15:00,30.6,15.5,30.15,NNW,330,1.0,2.0,53,0.00,,,0.00,Wunderground v.1.15,2013-04-02 12:15:00,
2013-04-02 08:20:00,31.1,15.5,30.15,NE,41,2.0,3.0,52,0.00,,,0.00,Wunderground v.1.15,2013-04-02 12:20:00,
2013-04-02 08:30:00,31.9,14.9,30.15,North,349,2.0,3.0,49,0.00,,,0.00,Wunderground v.1.15,2013-04-02 12:30:00,
2013-04-02 08:35:00,32.2,14.2,30.15,North,11,2.0,7.0,47,0.00,,,0.00,Wunderground v.1.15,2013-04-02 12:35:00,
2013-04-02 08:45:00,32.6,15.5,30.15,ENE,71,3.0,6.0,49,0.00,,,0.00,Wunderground v.1.15,2013-04-02 12:45:00,
2013-04-02 08:55:00,32.8,14.8,30.15,ENE,73,3.0,3.0,47,0.00,,,0.00,Wunderground v.1.15,2013-04-02 12:55:00,
2013-04-02 09:00:00,32.9,15.3,30.15,North,358,2.0,4.0,48,0.00,,,0.00,Wunderground v.1.15,2013-04-02 13:00:00,
2013-04-02 09:10:00,33.4,15.3,30.16,NW,326,3.0,3.0,47,0.00,,,0.00,Wunderground v.1.15,2013-04-02 13:10:00,
2013-04-02 09:15:00,33.8,15.7,30.15,NW,323,2.0,4.0,47,0.00,,,0.00,Wunderground v.1.15,2013-04-02 13:15:00,
2013-04-02 09:25:00,34.3,15.1,30.16,SE,141,2.0,2.0,45,0.00,,,0.00,Wunderground v.1.15,2013-04-02 13:25:00,
2013-04-02 09:30:00,34.3,14.6,30.16,North,349,3.0,3.0,44,0.00,,,0.00,Wunderground v.1.15,2013-04-02 13:30:00,
2013-04-02 09:35:00,34.5,15.3,30.16,NNE,32,3.0,4.0,45,0.00,,,0.00,Wunderground v.1.15,2013-04-02 13:35:00,
2013-04-02 09:45:00,35.3,15.0,30.16,NE,38,2.0,3.0,43,0.00,,,0.00,Wunderground v.1.15,2013-04-02 13:45:00,
2013-04-02 09:55:00,35.2,14.4,30.16,WNW,294,3.0,6.0,42,0.00,,,0.00,Wunderground v.1.15,2013-04-02 13:55:00,
2013-04-02 10:00:00,34.9,14.1,30.16,East,89,4.0,4.0,42,0.00,,,0.00,Wunderground v.1.15,2013-04-02 14:00:00,
2013-04-02 10:10:00,35.2,14.9,30.16,SW,229,3.0,3.0,43,0.00,,,0.00,Wunderground v.1.15,2013-04-02 14:10:00,
2013-04-02 10:15:00,35.6,15.3,30.17,SE,131,2.0,3.0,43,0.00,,,0.00,Wunderground v.1.15,2013-04-02 14:15:00,
2013-04-02 10:25:00,35.9,15.0,30.16,NNW,340,3.0,5.0,42,0.00,,,0.00,Wunderground v.1.15,2013-04-02 14:25:00,
2013-04-02 10:30:00,35.7,14.3,30.16,WNW,297,3.0,3.0,41,0.00,,,0.00,Wunderground v.1.15,2013-04-02 14:30:00,
2013-04-02 10:40:00,36.0,15.1,30.16,NNW,348,4.0,4.0,42,0.00,,,0.00,Wunderground v.1.15,2013-04-02 14:40:00,
2013-04-02 10:45:00,35.7,14.8,30.16,NNW,338,4.0,8.0,42,0.00,,,0.00,Wunderground v.1.15,2013-04-02 14:45:00,
2013-04-02 10:55:00,36.3,13.7,30.16,West,277,4.0,5.0,39,0.00,,,0.00,Wunderground v.1.15,2013-04-02 14:55:00,
2013-04-02 11:00:00,36.7,14.0,30.16,North,353,3.0,6.0,39,0.00,,,0.00,Wunderground v.1.15,2013-04-02 15:00:00,
2013-04-02 11:10:00,37.1,14.4,30.16,SW,214,4.0,4.0,39,0.00,,,0.00,Wunderground v.1.15,2013-04-02 15:10:00,
2013-04-02 11:15:00,37.1,14.4,30.16,SW,226,4.0,6.0,39,0.00,,,0.00,Wunderground v.1.15,2013-04-02 15:15:00,
2013-04-02 11:25:00,37.5,15.3,30.16,NE,49,3.0,9.0,40,0.00,,,0.00,Wunderground v.1.15,2013-04-02 15:25:00,
2013-04-02 11:30:00,37.3,14.6,30.16,NW,312,3.0,3.0,39,0.00,,,0.00,Wunderground v.1.15,2013-04-02 15:30:00,
2013-04-02 11:35:00,37.3,15.2,30.16,SW,235,4.0,4.0,40,0.00,,,0.00,Wunderground v.1.15,2013-04-02 15:35:00,
2013-04-02 11:45:00,37.7,14.3,30.17,SE,141,4.0,6.0,38,0.00,,,0.00,Wunderground v.1.15,2013-04-02 15:45:00,
2013-04-02 11:55:00,38.0,15.2,30.16,SSE,151,4.0,5.0,39,0.00,,,0.00,Wunderground v.1.15,2013-04-02 15:55:00,
2013-04-02 12:00:00,38.5,15.1,30.16,North,3,3.0,9.0,38,0.00,,,0.00,Wunderground v.1.15,2013-04-02 16:00:00,
2013-04-02 12:10:00,38.4,15.0,30.16,NW,307,4.0,4.0,38,0.00,,,0.00,Wunderground v.1.15,2013-04-02 16:10:00,
2013-04-02 12:15:00,37.8,12.6,30.16,WNW,286,5.0,6.0,35,0.00,,,0.00,Wunderground v.1.15,2013-04-02 16:15:00,
2013-04-02 12:25:00,38.6,13.3,30.16,East,85,4.0,8.0,35,0.00,,,0.00,Wunderground v.1.15,2013-04-02 16:25:00,
2013-04-02 12:40:00,39.3,14.5,30.16,ENE,65,3.0,3.0,36,0.00,,,0.00,Wunderground v.1.15,2013-04-02 16:40:00,
2013-04-02 12:50:00,40.1,14.6,30.16,WSW,241,3.0,9.0,35,0.00,,,0.00,Wunderground v.1.15,2013-04-02 16:50:00,
2013-04-02 13:00:00,40.0,13.2,30.16,NNE,13,5.0,5.0,33,0.00,,,0.00,Wunderground v.1.15,2013-04-02 17:00:00,
2013-04-02 13:10:00,39.8,13.0,30.16,NNE,23,4.0,8.0,33,0.00,,,0.00,Wunderground v.1.15,2013-04-02 17:10:00,
2013-04-02 13:15:00,39.7,12.2,30.16,WSW,253,5.0,8.0,32,0.00,,,0.00,Wunderground v.1.15,2013-04-02 17:15:00,
2013-04-02 13:20:00,39.9,13.1,30.15,NE,42,5.0,6.0,33,0.00,,,0.00,Wunderground v.1.15,2013-04-02 17:20:00,
2013-04-02 13:30:00,40.6,12.3,30.15,NNE,23,4.0,4.0,31,0.00,,,0.00,Wunderground v.1.15,2013-04-02 17:30:00,
2013-04-02 13:35:00,40.7,13.1,30.15,NE,36,4.0,4.0,32,0.00,,,0.00,Wunderground v.1.15,2013-04-02 17:35:00,
2013-04-02 13:45:00,40.6,13.7,30.14,SW,224,5.0,9.0,33,0.00,,,0.00,Wunderground v.1.15,2013-04-02 17:45:00,
2013-04-02 13:50:00,40.9,12.5,30.15,NNE,13,5.0,5.0,31,0.00,,,0.00,Wunderground v.1.15,2013-04-02 17:50:00,
2013-04-02 14:00:00,41.0,12.6,30.15,South,171,5.0,5.0,31,0.00,,,0.00,Wunderground v.1.15,2013-04-02 18:00:00,
2013-04-02 14:10:00,40.8,11.7,30.14,SSW,211,5.0,5.0,30,0.00,,,0.00,Wunderground v.1.15,2013-04-02 18:10:00,
2013-04-02 14:15:00,40.8,11.7,30.14,ESE,122,5.0,5.0,30,0.00,,,0.00,Wunderground v.1.15,2013-04-02 18:15:00,
2013-04-02 14:25:00,41.6,13.9,30.14,ENE,62,3.0,5.0,32,0.00,,,0.00,Wunderground v.1.15,2013-04-02 18:25:00,
2013-04-02 14:30:00,42.3,12.3,30.14,NNW,330,3.0,5.0,29,0.00,,,0.00,Wunderground v.1.15,2013-04-02 18:30:00,
2013-04-02 14:40:00,41.7,12.5,30.13,NE,39,5.0,5.0,30,0.00,,,0.00,Wunderground v.1.15,2013-04-02 18:40:00,
2013-04-02 14:45:00,42.3,13.0,30.13,NE,55,5.0,8.0,30,0.00,,,0.00,Wunderground v.1.15,2013-04-02 18:45:00,
2013-04-02 14:55:00,42.7,12.6,30.13,West,267,4.0,4.0,29,0.00,,,0.00,Wunderground v.1.15,2013-04-02 18:55:00,
2013-04-02 15:00:00,42.2,12.2,30.13,WSW,254,4.0,4.0,29,0.00,,,0.00,Wunderground v.1.15,2013-04-02 19:00:00,
2013-04-02 15:10:00,42.7,12.6,30.13,WNW,291,3.0,4.0,29,0.00,,,0.00,Wunderground v.1.15,2013-04-02 19:10:00,
2013-04-02 15:15:00,42.1,12.1,30.12,North,1,3.0,8.0,29,0.00,,,0.00,Wunderground v.1.15,2013-04-02 19:15:00,
2013-04-02 15:25:00,42.8,11.9,30.13,SW,215,3.0,4.0,28,0.00,,,0.00,Wunderground v.1.15,2013-04-02 19:25:00,
2013-04-02 15:30:00,42.4,12.3,30.12,ESE,105,4.0,4.0,29,0.00,,,0.00,Wunderground v.1.15,2013-04-02 19:30:00,
2013-04-02 15:40:00,42.4,11.5,30.12,WNW,284,5.0,5.0,28,0.00,,,0.00,Wunderground v.1.15,2013-04-02 19:40:00,
2013-04-02 15:45:00,42.7,12.6,30.12,NNE,32,4.0,6.0,29,0.00,,,0.00,Wunderground v.1.15,2013-04-02 19:45:00,
2013-04-02 16:00:00,43.1,12.9,30.11,ESE,117,4.0,5.0,29,0.00,,,0.00,Wunderground v.1.15,2013-04-02 20:00:00,
2013-04-02 16:10:00,43.6,12.6,30.11,NNW,328,3.0,3.0,28,0.00,,,0.00,Wunderground v.1.15,2013-04-02 20:10:00,
2013-04-02 16:15:00,43.5,12.5,30.11,SE,133,3.0,3.0,28,0.00,,,0.00,Wunderground v.1.15,2013-04-02 20:15:00,
2013-04-02 16:25:00,43.0,11.2,30.11,West,262,4.0,4.0,27,0.00,,,0.00,Wunderground v.1.15,2013-04-02 20:25:00,
2013-04-02 16:30:00,43.2,11.4,30.10,West,276,4.0,4.0,27,0.00,,,0.00,Wunderground v.1.15,2013-04-02 20:30:00,
2013-04-02 16:40:00,44.1,13.0,30.11,SSE,163,2.0,2.0,28,0.00,,,0.00,Wunderground v.1.15,2013-04-02 20:40:00,
2013-04-02 16:50:00,44.1,11.3,30.11,WNW,283,2.0,2.0,26,0.00,,,0.00,Wunderground v.1.15,2013-04-02 20:50:00,
2013-04-02 16:55:00,43.6,10.9,30.11,WSW,248,3.0,3.0,26,0.00,,,0.00,Wunderground v.1.15,2013-04-02 20:55:00,
2013-04-02 17:05:00,43.6,11.8,30.11,NNE,29,3.0,4.0,27,0.00,,,0.00,Wunderground v.1.15,2013-04-02 21:05:00,
2013-04-02 17:10:00,43.9,11.2,30.12,NNE,19,3.0,3.0,26,0.00,,,0.00,Wunderground v.1.15,2013-04-02 21:10:00,
2013-04-02 17:20:00,43.5,10.8,30.11,SSW,210,4.0,4.0,26,0.00,,,0.00,Wunderground v.1.15,2013-04-02 21:20:00,
2013-04-02 17:25:00,43.5,10.8,30.12,ENE,68,4.0,4.0,26,0.00,,,0.00,Wunderground v.1.15,2013-04-02 21:25:00,
2013-04-02 17:40:00,43.4,10.7,30.12,ENE,60,4.0,4.0,26,0.00,,,0.00,Wunderground v.1.15,2013-04-02 21:40:00,
2013-04-02 17:45:00,43.5,10.8,30.12,NNE,15,3.0,4.0,26,0.00,,,0.00,Wunderground v.1.15,2013-04-02 21:45:00,
2013-04-02 17:55:00,43.2,11.4,30.12,NE,49,3.0,5.0,27,0.00,,,0.00,Wunderground v.1.15,2013-04-02 21:55:00,
2013-04-02 18:00:00,43.1,11.3,30.13,ESE,122,2.0,4.0,27,0.00,,,0.00,Wunderground v.1.15,2013-04-02 22:00:00,
2013-04-02 18:10:00,42.4,10.7,30.13,North,356,3.0,3.0,27,0.00,,,0.00,Wunderground v.1.15,2013-04-02 22:10:00,
2013-04-02 18:20:00,42.3,11.5,30.13,ENE,63,3.0,4.0,28,0.00,,,0.00,Wunderground v.1.15,2013-04-02 22:20:00,
2013-04-02 18:25:00,42.3,11.5,30.14,North,353,3.0,4.0,28,0.00,,,0.00,Wunderground v.1.15,2013-04-02 22:25:00,
2013-04-02 18:30:00,42.3,10.6,30.14,WSW,248,2.0,4.0,27,0.00,,,0.00,Wunderground v.1.15,2013-04-02 22:30:00,
2013-04-02 18:40:00,41.9,10.3,30.14,NW,321,2.0,2.0,27,0.00,,,0.00,Wunderground v.1.15,2013-04-02 22:40:00,
2013-04-02 18:45:00,41.8,11.0,30.14,West,266,2.0,2.0,28,0.00,,,0.00,Wunderground v.1.15,2013-04-02 22:45:00,
2013-04-02 18:55:00,41.6,10.9,30.14,ENE,73,3.0,3.0,28,0.00,,,0.00,Wunderground v.1.15,2013-04-02 22:55:00,
2013-04-02 19:05:00,41.3,10.6,30.14,ESE,108,2.0,8.0,28,0.00,,,0.00,Wunderground v.1.15,2013-04-02 23:05:00,
2013-04-02 19:10:00,41.2,10.5,30.14,NE,44,3.0,3.0,28,0.00,,,0.00,Wunderground v.1.15,2013-04-02 23:10:00,
2013-04-02 19:20:00,40.8,11.7,30.15,ENE,62,1.0,1.0,30,0.00,,,0.00,Wunderground v.1.15,2013-04-02 23:20:00,
2013-04-02 19:30:00,40.3,10.5,30.15,NE,56,1.0,2.0,29,0.00,,,0.00,Wunderground v.1.15,2013-04-02 23:30:00,
2013-04-02 19:35:00,40.1,11.1,30.15,NNE,32,1.0,2.0,30,0.00,,,0.00,Wunderground v.1.15,2013-04-02 23:35:00,
2013-04-02 19:45:00,39.6,11.4,30.15,ESE,113,1.0,1.0,31,0.00,,,0.00,Wunderground v.1.15,2013-04-02 23:45:00,
2013-04-02 19:50:00,39.3,13.2,30.15,East,81,1.0,1.0,34,0.00,,,0.00,Wunderground v.1.15,2013-04-02 23:50:00,
2013-04-02 20:00:00,39.1,11.7,30.16,WSW,251,1.0,1.0,32,0.00,,,0.00,Wunderground v.1.15,2013-04-03 00:00:00,
2013-04-02 20:05:00,38.9,11.5,30.16,WSW,252,1.0,1.0,32,0.00,,,0.00,Wunderground v.1.15,2013-04-03 00:05:00,
2013-04-02 20:15:00,38.1,13.5,30.16,WSW,252,0.0,0.0,36,0.00,,,0.00,Wunderground v.1.15,2013-04-03 00:15:00,
2013-04-02 20:20:00,37.5,14.2,30.17,WSW,252,0.0,0.0,38,0.00,,,0.00,Wunderground v.1.15,2013-04-03 00:20:00,
2013-04-02 20:30:00,36.3,14.8,30.17,WSW,252,0.0,0.0,41,0.00,,,0.00,Wunderground v.1.15,2013-04-03 00:30:00,
2013-04-02 20:35:00,35.7,14.3,30.17,SSW,196,0.0,0.0,41,0.00,,,0.00,Wunderground v.1.15,2013-04-03 00:35:00,
2013-04-02 20:50:00,33.9,14.3,30.17,SSW,195,0.0,0.0,44,0.00,,,0.00,Wunderground v.1.15,2013-04-03 00:50:00,
2013-04-02 20:55:00,33.3,15.2,30.18,SSW,195,0.0,0.0,47,0.00,,,0.00,Wunderground v.1.15,2013-04-03 00:55:00,
2013-04-02 21:00:00,32.8,14.3,30.18,SSW,195,0.0,0.0,46,0.00,,,0.00,Wunderground v.1.15,2013-04-03 01:00:00,
2013-04-02 21:10:00,31.8,14.3,30.19,SSW,195,0.0,0.0,48,0.00,,,0.00,Wunderground v.1.15,2013-04-03 01:10:00,
2013-04-02 21:20:00,31.0,14.5,30.19,SSW,195,0.0,0.0,50,0.00,,,0.00,Wunderground v.1.15,2013-04-03 01:20:00,
2013-04-02 21:25:00,30.7,14.7,30.19,SSW,195,0.0,0.0,51,0.00,,,0.00,Wunderground v.1.15,2013-04-03 01:25:00,
2013-04-02 21:35:00,30.0,14.5,30.20,SSW,195,0.0,0.0,52,0.00,,,0.00,Wunderground v.1.15,2013-04-03 01:35:00,
2013-04-02 21:45:00,29.3,14.3,30.20,SSW,195,0.0,0.0,53,0.00,,,0.00,Wunderground v.1.15,2013-04-03 01:45:00,
2013-04-02 21:50:00,29.1,14.5,30.20,SSW,196,0.0,0.0,54,0.00,,,0.00,Wunderground v.1.15,2013-04-03 01:50:00,
2013-04-02 22:00:00,28.7,14.6,30.20,SSW,195,0.0,0.0,55,0.00,,,0.00,Wunderground v.1.15,2013-04-03 02:00:00,
2013-04-02 22:10:00,28.3,15.8,30.21,SSW,195,0.0,0.0,59,0.00,,,0.00,Wunderground v.1.15,2013-04-03 02:10:00,
2013-04-02 22:15:00,28.1,16.0,30.21,SSW,195,0.0,0.0,60,0.00,,,0.00,Wunderground v.1.15,2013-04-03 02:15:00,
2013-04-02 22:20:00,27.9,15.8,30.21,SSW,195,0.0,0.0,60,0.00,,,0.00,Wunderground v.1.15,2013-04-03 02:20:00,
2013-04-02 22:30:00,27.5,15.4,30.21,SSW,195,0.0,0.0,60,0.00,,,0.00,Wunderground v.1.15,2013-04-03 02:30:00,
2013-04-02 22:40:00,27.1,16.2,30.21,SSW,195,0.0,0.0,63,0.00,,,0.00,Wunderground v.1.15,2013-04-03 02:40:00,
2013-04-02 22:45:00,26.9,16.3,30.21,SSW,195,0.0,0.0,64,0.00,,,0.00,Wunderground v.1.15,2013-04-03 02:45:00,
2013-04-02 22:55:00,26.6,17.1,30.21,SSW,195,0.0,0.0,67,0.00,,,0.00,Wunderground v.1.15,2013-04-03 02:55:00,
2013-04-02 23:00:00,26.4,17.3,30.21,SSW,195,0.0,0.0,68,0.00,,,0.00,Wunderground v.1.15,2013-04-03 03:00:00,
2013-04-02 23:05:00,26.4,17.3,30.21,N/A,-737280,0.0,-999.0,68,0.00,,,0.00,Wunderground v.1.15,2013-04-03 03:05:00,
2013-04-02 23:10:00,26.0,17.2,30.21,SSW,195,0.0,0.0,69,0.00,,,0.00,Wunderground v.1.15,2013-04-03 03:10:00,
2013-04-02 23:15:00,25.7,18.2,30.21,N/A,-737280,0.0,-999.0,73,0.00,,,0.00,Wunderground v.1.15,2013-04-03 03:15:00,
2013-04-02 23:20:00,25.9,18.1,30.21,SSW,195,0.0,0.0,72,0.00,,,0.00,Wunderground v.1.15,2013-04-03 03:20:00,
2013-04-02 23:25:00,25.8,18.3,30.21,SSW,196,0.0,0.0,73,0.00,,,0.00,Wunderground v.1.15,2013-04-03 03:25:00,
2013-04-02 23:30:00,25.7,18.2,30.21,N/A,-737280,0.0,-999.0,73,0.00,,,0.00,Wunderground v.1.15,2013-04-03 03:30:00,
2013-04-02 23:35:00,25.4,17.9,30.21,SSW,195,0.0,0.0,73,0.00,,,0.00,Wunderground v.1.15,2013-04-03 03:35:00,
2013-04-02 23:40:00,25.3,18.2,30.22,SSW,195,0.0,0.0,74,0.00,,,0.00,Wunderground v.1.15,2013-04-03 03:40:00,
2013-04-02 23:45:00,25.0,17.6,30.22,N/A,-737280,0.0,-999.0,73,0.00,,,0.00,Wunderground v.1.15,2013-04-03 03:45:00,
2013-04-02 23:50:00,25.0,17.6,30.22,N/A,-737280,0.0,-999.0,73,0.00,,,0.00,Wunderground v.1.15,2013-04-03 03:50:00,
2013-04-02 23:55:00,25.0,17.6,30.22,N/A,-737280,0.0,-999.0,73,0.00,,,0.00,Wunderground v.1.15,2013-04-03 03:55:00,